createdAt,value
2023-01-01T00:06:09.257Z,13.85
2023-01-01T00:13:27.629Z,9.30
2023-01-01T00:20:45.864Z,11.80
2023-01-01T00:28:05.971Z,9.98
2023-01-01T00:35:25.079Z,9.18
2023-01-01T00:42:43.326Z,7.78
2023-01-01T00:50:03.088Z,6.88
2023-01-01T00:57:21.398Z,5.60
2023-01-01T01:04:40.009Z,4.07
2023-01-01T01:12:17.737Z,2.85
2023-01-01T01:19:37.373Z,3.10
2023-01-01T01:26:55.574Z,2.90
2023-01-01T01:34:16.482Z,2.58
2023-01-01T01:41:35.394Z,2.40
2023-01-01T01:48:54.669Z,2.75
2023-01-01T01:56:20.268Z,2.25
2023-01-01T02:03:42.331Z,2.25
2023-01-01T02:11:00.615Z,2.33
2023-01-01T02:18:23.015Z,2.35
2023-01-01T02:25:52.949Z,2.65
2023-01-01T02:33:16.452Z,2.33
2023-01-01T02:40:36.270Z,2.00
2023-01-01T02:47:54.511Z,2.13
2023-01-01T02:55:22.956Z,1.90
2023-01-01T03:02:51.110Z,2.45
2023-01-01T03:10:16.475Z,2.05
2023-01-01T03:17:37.609Z,2.30
2023-01-01T03:24:59.486Z,2.03
2023-01-01T03:32:23.433Z,2.40
2023-01-01T03:39:45.007Z,2.72
2023-01-01T03:47:03.793Z,2.10
2023-01-01T03:54:30.188Z,2.78
2023-01-01T04:01:50.971Z,2.50
2023-01-01T04:09:11.602Z,2.58
2023-01-01T04:16:32.559Z,2.40
2023-01-01T04:23:53.529Z,2.28
2023-01-01T04:31:12.879Z,2.60
2023-01-01T04:38:32.527Z,2.33
2023-01-01T04:45:57.348Z,2.42
2023-01-01T04:53:15.559Z,2.45
2023-01-01T05:00:35.207Z,2.70
2023-01-01T05:07:53.430Z,2.40
2023-01-01T05:15:12.157Z,2.42
2023-01-01T05:22:34.607Z,2.30
2023-01-01T05:29:52.879Z,2.37
2023-01-01T05:37:11.097Z,2.35
2023-01-01T05:44:31.043Z,2.72
2023-01-01T05:51:50.809Z,2.70
2023-01-01T05:59:10.661Z,2.55
2023-01-01T06:06:33.387Z,2.50
2023-01-01T06:13:54.010Z,1.90
2023-01-01T06:21:14.007Z,2.08
2023-01-01T06:28:33.804Z,2.65
2023-01-01T06:35:54.796Z,3.25
2023-01-01T06:43:13.005Z,2.55
2023-01-01T06:50:32.577Z,2.40
2023-01-01T06:57:53.240Z,2.10
2023-01-01T07:05:11.532Z,2.72
2023-01-01T07:12:31.777Z,2.85
2023-01-01T07:19:50.063Z,1.95
2023-01-01T07:27:08.224Z,2.85
2023-01-01T07:34:27.935Z,2.20
2023-01-01T07:41:46.307Z,2.35
2023-01-01T07:49:05.419Z,2.47
2023-01-01T07:56:25.057Z,2.45
2023-01-01T08:03:43.782Z,2.70
2023-01-01T08:11:04.178Z,2.30
2023-01-01T08:18:23.865Z,2.47
2023-01-01T08:25:42.047Z,2.20
2023-01-01T08:33:00.372Z,2.60
2023-01-01T08:40:20.979Z,2.25
2023-01-01T08:47:39.393Z,2.45
2023-01-01T08:54:57.723Z,2.55
2023-01-01T09:02:17.473Z,2.53
2023-01-01T09:09:35.888Z,2.22
2023-01-01T09:16:54.355Z,2.50
2023-01-01T09:24:14.173Z,2.28
2023-01-01T09:31:32.850Z,2.60
2023-01-01T09:38:51.388Z,2.72
2023-01-01T09:46:11.460Z,2.42
2023-01-01T09:53:33.343Z,2.92
2023-01-01T10:00:54.731Z,2.53
2023-01-01T10:08:23.675Z,2.67
2023-01-01T10:15:46.187Z,2.83
2023-01-01T10:23:09.080Z,2.43
2023-01-01T10:30:30.722Z,2.78
2023-01-01T10:37:49.993Z,2.38
2023-01-01T10:45:13.888Z,2.35
2023-01-01T10:52:37.325Z,2.38
2023-01-01T10:59:55.766Z,2.88
2023-01-01T11:07:21.311Z,3.65
2023-01-01T11:14:43.732Z,3.03
2023-01-01T11:22:02.366Z,2.83
2023-01-01T11:29:25.099Z,3.60
2023-01-01T11:36:45.006Z,3.08
2023-01-01T11:44:03.555Z,3.00
2023-01-01T11:51:32.393Z,3.20
2023-01-01T11:58:54.111Z,3.42
2023-01-01T12:06:17.759Z,3.13
2023-01-01T12:13:43.630Z,3.75
2023-01-01T12:21:05.368Z,3.45
2023-01-01T12:28:31.968Z,3.90
2023-01-01T12:36:24.207Z,3.70
2023-01-01T12:43:49.197Z,3.65
2023-01-01T12:51:17.645Z,3.88
2023-01-01T12:58:39.102Z,3.30
2023-01-01T13:05:58.737Z,4.05
2023-01-01T13:13:18.702Z,4.30
2023-01-01T13:20:40.900Z,4.00
2023-01-01T13:28:13.946Z,3.72
2023-01-01T13:35:34.849Z,5.35
2023-01-01T13:43:06.811Z,4.10
2023-01-01T13:50:30.742Z,3.67
2023-01-01T13:58:25.334Z,3.90
2023-01-01T14:05:46.096Z,4.43
2023-01-01T14:13:17.164Z,5.10
2023-01-01T14:20:37.798Z,4.72
2023-01-01T14:27:57.281Z,4.95
2023-01-01T14:35:19.070Z,5.35
2023-01-01T14:42:39.096Z,5.28
2023-01-01T14:50:02.082Z,4.95
2023-01-01T14:57:25.883Z,4.07
2023-01-01T15:04:44.658Z,4.35
2023-01-01T15:12:02.829Z,4.70
2023-01-01T15:19:24.796Z,4.80
2023-01-01T15:26:44.924Z,4.55
2023-01-01T15:34:03.410Z,4.28
2023-01-01T15:41:27.818Z,4.30
2023-01-01T15:48:49.360Z,5.50
2023-01-01T15:56:12.156Z,5.28
2023-01-01T16:03:32.567Z,4.63
2023-01-01T16:10:51.437Z,5.60
2023-01-01T16:18:12.628Z,5.97
2023-01-01T16:25:32.282Z,5.05
2023-01-01T16:32:51.313Z,5.40
2023-01-01T16:40:10.897Z,5.32
2023-01-01T16:47:31.706Z,5.00
2023-01-01T16:54:50.070Z,5.97
2023-01-01T17:02:11.362Z,5.20
2023-01-01T17:09:31.859Z,6.13
2023-01-01T17:16:52.016Z,5.78
2023-01-01T17:24:11.236Z,5.60
2023-01-01T17:31:31.637Z,5.80
2023-01-01T17:38:50.424Z,5.72
2023-01-01T17:46:12.172Z,5.85
2023-01-01T17:53:32.761Z,5.53
2023-01-01T18:00:51.377Z,6.75
2023-01-01T18:08:09.677Z,6.82
2023-01-01T18:15:30.223Z,7.43
2023-01-01T18:22:48.905Z,6.68
2023-01-01T18:30:08.064Z,7.18
2023-01-01T18:37:29.347Z,7.25
2023-01-01T18:44:47.789Z,7.75
2023-01-01T18:52:13.611Z,7.95
2023-01-01T18:59:33.605Z,8.02
2023-01-01T19:06:51.883Z,8.63
2023-01-01T19:14:16.045Z,8.20
2023-01-01T19:21:35.830Z,8.20
2023-01-01T19:28:55.228Z,9.10
2023-01-01T19:36:13.522Z,9.18
2023-01-01T19:43:33.093Z,9.80
2023-01-01T19:50:51.294Z,10.38
2023-01-01T19:58:10.808Z,10.65
2023-01-01T20:05:34.991Z,10.57
2023-01-01T20:12:53.814Z,11.45
2023-01-01T20:20:12.715Z,10.05
2023-01-01T20:27:34.193Z,10.18
2023-01-01T20:34:53.360Z,9.95
2023-01-01T20:42:12.101Z,10.30
2023-01-01T20:49:31.789Z,9.93
2023-01-01T20:56:52.946Z,10.73
2023-01-01T21:04:11.895Z,10.40
2023-01-01T21:11:31.529Z,9.88
2023-01-01T21:18:50.390Z,10.55
2023-01-01T21:26:15.132Z,10.23
2023-01-01T21:33:34.947Z,10.73
2023-01-01T21:40:54.500Z,10.65
2023-01-01T21:48:20.182Z,10.55
2023-01-01T21:55:55.462Z,10.90
2023-01-01T22:03:28.905Z,11.48
2023-01-01T22:10:50.819Z,9.27
2023-01-01T22:18:24.994Z,9.52
2023-01-01T22:25:43.232Z,9.65
2023-01-01T22:33:02.758Z,11.13
2023-01-01T22:40:26.351Z,10.10
2023-01-01T22:47:45.136Z,10.05
2023-01-01T22:55:05.233Z,10.10
2023-01-01T23:02:23.748Z,10.77
2023-01-01T23:09:43.987Z,11.38
2023-01-01T23:17:03.939Z,10.98
2023-01-01T23:24:24.186Z,10.43
2023-01-01T23:31:43.389Z,10.38
2023-01-01T23:39:03.073Z,10.13
2023-01-01T23:46:21.843Z,9.50
2023-01-01T23:53:40.369Z,9.88
